Time;durP1;ratioP1;P1;durP2;ratioP2;P2;SDS_P1;SDS_P2;PMS_P1;PMS_P2;Temp;Humidity;BMP_temperature;BMP_pressure;BME280_temperature;BME280_humidity;BME280_pressure;Samples;Min_cycle;Max_cycle;Signal;HPM_P1;HPM_P2
2021/04/27 00:00:33;;;;;;;7.63;4.43;;;2.40;99.90;;;;;;5110401;28;20043;-58
2021/04/27 00:02:59;;;;;;;8.63;4.30;;;2.40;99.90;;;;;;5109883;28;20391;-58
2021/04/27 00:05:25;;;;;;;9.38;4.70;;;2.40;99.90;;;;;;5110383;28;20061;-59
2021/04/27 00:07:51;;;;;;;8.90;4.70;;;2.30;99.90;;;;;;5110093;28;20054;-58
2021/04/27 00:10:20;;;;;;;8.57;4.23;;;2.30;99.90;;;;;;5109810;28;20463;-59
2021/04/27 00:12:46;;;;;;;10.30;4.40;;;2.30;99.90;;;;;;5091775;28;20399;-58
2021/04/27 00:15:17;;;;;;;11.80;4.30;;;2.20;99.90;;;;;;5109812;28;20070;-59
2021/04/27 00:17:43;;;;;;;11.00;4.80;;;2.30;99.90;;;;;;5109731;28;20151;-58
2021/04/27 00:20:09;;;;;;;7.80;4.70;;;2.20;99.90;;;;;;5109660;28;20039;-59
2021/04/27 00:22:35;;;;;;;9.18;4.60;;;2.20;99.90;;;;;;5109615;28;20337;-59
2021/04/27 00:25:02;;;;;;;6.13;4.30;;;2.10;99.90;;;;;;5110090;28;20054;-58
2021/04/27 00:27:28;;;;;;;8.65;4.40;;;2.10;99.90;;;;;;5109800;28;20089;-59
2021/04/27 00:29:54;;;;;;;11.37;4.77;;;2.10;99.90;;;;;;5109450;28;20071;-58
2021/04/27 00:32:19;;;;;;;8.93;4.80;;;2.10;99.90;;;;;;5109914;28;20040;-59
2021/04/27 00:34:45;;;;;;;10.87;4.60;;;2.10;99.90;;;;;;5109579;28;20046;-59
2021/04/27 00:37:11;;;;;;;9.67;5.10;;;2.10;99.90;;;;;;5090541;28;20048;-58
2021/04/27 00:39:37;;;;;;;11.88;4.85;;;2.10;99.90;;;;;;5109487;28;20056;-59
2021/04/27 00:42:05;;;;;;;10.65;5.13;;;2.00;99.90;;;;;;5109609;28;20048;-59
2021/04/27 00:44:31;;;;;;;12.20;5.03;;;2.00;99.90;;;;;;5109873;28;20104;-59
2021/04/27 00:46:57;;;;;;;10.40;4.73;;;2.00;99.90;;;;;;5109334;28;20044;-58
2021/04/27 00:49:22;;;;;;;11.03;4.83;;;1.90;99.90;;;;;;5109558;28;20046;-58
2021/04/27 00:51:48;;;;;;;7.17;4.63;;;1.90;99.90;;;;;;5110226;28;20367;-60
2021/04/27 00:54:15;;;;;;;9.85;5.00;;;1.90;99.90;;;;;;5109870;28;20160;-59
2021/04/27 00:56:41;;;;;;;9.48;5.30;;;1.90;99.90;;;;;;5091939;28;20036;-60
2021/04/27 00:59:07;;;;;;;7.53;5.10;;;1.80;99.90;;;;;;5109357;28;20660;-60
2021/04/27 01:01:33;;;;;;;10.70;5.07;;;1.80;99.90;;;;;;5109420;28;20059;-60
2021/04/27 01:03:59;;;;;;;8.67;4.97;;;1.80;99.90;;;;;;5109427;28;20192;-60
2021/04/27 01:06:24;;;;;;;14.35;5.25;;;1.70;99.90;;;;;;5108807;28;20371;-60
2021/04/27 01:09:15;;;;;;;9.53;5.37;;;1.70;99.90;;;;;;5109155;28;20048;-60
2021/04/27 01:11:55;;;;;;;10.00;5.32;;;1.80;99.90;;;;;;5109107;28;20043;-60
2021/04/27 01:14:40;;;;;;;8.82;4.45;;;1.80;99.90;;;;;;5109020;28;20466;-60
2021/04/27 01:17:13;;;;;;;8.85;5.20;;;1.80;99.90;;;;;;5108447;28;20467;-60
2021/04/27 01:19:56;;;;;;;9.40;4.95;;;1.80;99.90;;;;;;5108693;28;20079;-61
2021/04/27 01:22:34;;;;;;;9.75;5.13;;;1.90;99.90;;;;;;5109565;28;20040;-60
2021/04/27 01:25:03;;;;;;;12.52;4.93;;;1.80;99.90;;;;;;5108977;28;20093;-60
2021/04/27 01:27:30;;;;;;;11.95;5.07;;;1.80;99.90;;;;;;5109115;28;20043;-60
2021/04/27 01:29:58;;;;;;;11.45;5.63;;;1.80;99.90;;;;;;5108970;28;20044;-60
2021/04/27 01:32:24;;;;;;;9.07;5.20;;;1.80;99.90;;;;;;5090329;28;20105;-58
2021/04/27 01:34:50;;;;;;;11.03;5.47;;;1.80;99.90;;;;;;5109068;28;20057;-58
2021/04/27 01:37:17;;;;;;;11.98;5.82;;;1.80;99.90;;;;;;5109048;28;20495;-60
2021/04/27 01:39:43;;;;;;;9.93;5.93;;;1.70;99.90;;;;;;5108746;28;20382;-60
2021/04/27 01:42:10;;;;;;;10.75;5.65;;;2.00;99.90;;;;;;5109022;28;20047;-60
2021/04/27 01:44:41;;;;;;;11.88;5.80;;;1.70;99.90;;;;;;5108844;28;20044;-60
2021/04/27 01:47:09;;;;;;;11.60;5.75;;;1.70;99.90;;;;;;5109046;28;20048;-60
2021/04/27 01:49:36;;;;;;;7.70;5.43;;;1.60;99.90;;;;;;5112331;28;20367;-61
2021/04/27 01:52:02;;;;;;;10.35;5.90;;;1.60;99.90;;;;;;5112736;28;20214;-60
2021/04/27 01:54:30;;;;;;;10.63;6.00;;;1.50;99.90;;;;;;5112570;28;20167;-60
2021/04/27 01:56:56;;;;;;;9.30;5.72;;;1.50;99.90;;;;;;5094344;28;20346;-59
2021/04/27 01:59:23;;;;;;;14.80;6.45;;;1.40;99.90;;;;;;5112583;28;20071;-60
2021/04/27 02:01:49;;;;;;;12.10;5.82;;;1.40;99.90;;;;;;5112588;28;20073;-61
2021/04/27 02:04:22;;;;;;;10.57;5.90;;;1.40;99.90;;;;;;5112669;28;20043;-60
2021/04/27 02:06:49;;;;;;;13.63;6.45;;;1.40;99.90;;;;;;5112044;28;20104;-60
2021/04/27 02:09:15;;;;;;;14.35;5.60;;;1.30;99.90;;;;;;5112401;28;20487;-60
2021/04/27 02:11:47;;;;;;;11.90;5.78;;;1.30;99.90;;;;;;5112331;28;20352;-60
2021/04/27 02:14:14;;;;;;;10.73;6.28;;;1.30;99.90;;;;;;5112058;28;20044;-59
2021/04/27 02:16:51;;;;;;;11.57;6.10;;;1.30;99.90;;;;;;5112089;28;20436;-60
2021/04/27 02:19:22;;;;;;;8.02;5.45;;;1.30;99.90;;;;;;5093964;28;20050;-60
2021/04/27 02:21:48;;;;;;;9.85;5.93;;;1.30;99.90;;;;;;5111855;28;20051;-60
2021/04/27 02:24:14;;;;;;;12.10;6.00;;;1.30;99.90;;;;;;5112127;28;20046;-60
2021/04/27 02:26:41;;;;;;;11.48;5.28;;;1.30;99.90;;;;;;5112315;28;20075;-60
2021/04/27 02:29:08;;;;;;;11.13;5.97;;;1.30;99.90;;;;;;5112007;28;20050;-60
2021/04/27 02:31:34;;;;;;;9.38;5.95;;;1.30;99.90;;;;;;5093227;28;20093;-60
2021/04/27 02:34:03;;;;;;;11.15;6.13;;;1.20;99.90;;;;;;5112085;28;20040;-60
2021/04/27 02:36:30;;;;;;;9.73;5.75;;;1.20;99.90;;;;;;5111724;28;20095;-60
2021/04/27 02:38:55;;;;;;;10.60;6.00;;;1.20;99.90;;;;;;5111289;28;20039;-60
2021/04/27 02:41:21;;;;;;;9.27;5.87;;;1.20;99.90;;;;;;5111604;28;20100;-59
2021/04/27 02:43:48;;;;;;;14.48;6.75;;;1.10;99.90;;;;;;5111582;28;20044;-60
2021/04/27 02:46:15;;;;;;;13.55;7.10;;;1.00;99.90;;;;;;5093282;28;20054;-59
2021/04/27 02:48:40;;;;;;;12.57;6.85;;;1.10;99.90;;;;;;5111354;28;20044;-60
2021/04/27 02:51:06;;;;;;;13.10;6.60;;;1.00;99.90;;;;;;5111720;28;20066;-60
2021/04/27 02:53:32;;;;;;;14.30;6.37;;;0.90;99.90;;;;;;5111695;28;20472;-59
2021/04/27 02:55:58;;;;;;;13.67;6.20;;;0.90;99.90;;;;;;5111646;28;20403;-60
2021/04/27 02:58:24;;;;;;;12.67;6.27;;;0.90;99.90;;;;;;5110876;28;20043;-60
2021/04/27 03:00:50;;;;;;;12.45;6.78;;;0.90;99.90;;;;;;5110467;28;20123;-60
2021/04/27 03:03:16;;;;;;;14.85;7.30;;;1.10;99.90;;;;;;5111425;28;20058;-60
2021/04/27 03:05:42;;;;;;;12.25;7.20;;;0.90;99.90;;;;;;5111151;28;20047;-60
2021/04/27 03:08:08;;;;;;;12.33;7.27;;;1.00;99.90;;;;;;5111074;28;20043;-60
2021/04/27 03:10:35;;;;;;;13.65;7.30;;;1.00;99.90;;;;;;5111161;28;20302;-59
2021/04/27 03:13:01;;;;;;;14.88;7.10;;;1.00;99.90;;;;;;5111228;28;20043;-59
2021/04/27 03:15:27;;;;;;;12.15;7.85;;;1.00;99.90;;;;;;5111092;28;20486;-59
2021/04/27 03:17:53;;;;;;;11.30;7.67;;;1.00;99.90;;;;;;5110960;28;20047;-59
2021/04/27 03:20:19;;;;;;;12.20;7.07;;;1.00;99.90;;;;;;5111065;28;20044;-59
2021/04/27 03:22:45;;;;;;;14.13;7.60;;;1.00;99.90;;;;;;5110871;28;20367;-59
2021/04/27 03:25:13;;;;;;;15.48;7.35;;;0.90;99.90;;;;;;5110804;28;20394;-59
2021/04/27 03:27:39;;;;;;;11.45;7.68;;;0.90;99.90;;;;;;5110820;28;20043;-60
2021/04/27 03:30:07;;;;;;;13.80;7.32;;;0.80;99.90;;;;;;5110723;28;20431;-59
2021/04/27 03:32:33;;;;;;;18.70;8.43;;;0.80;99.90;;;;;;5111077;28;20065;-59
2021/04/27 03:34:59;;;;;;;10.97;7.17;;;0.80;99.90;;;;;;5110662;28;20100;-59
2021/04/27 03:37:25;;;;;;;13.20;7.33;;;0.70;99.90;;;;;;5110845;28;20502;-59
2021/04/27 03:39:50;;;;;;;14.63;7.80;;;0.70;99.90;;;;;;5110687;28;20043;-59
2021/04/27 03:42:17;;;;;;;20.67;8.10;;;0.60;99.90;;;;;;5110656;28;20612;-60
2021/04/27 03:44:43;;;;;;;13.55;7.20;;;0.60;99.90;;;;;;5110352;28;20044;-59
2021/04/27 03:47:09;;;;;;;15.37;7.63;;;0.60;99.90;;;;;;5110590;28;20040;-59
2021/04/27 03:49:35;;;;;;;13.63;8.43;;;0.50;99.90;;;;;;5110554;28;20044;-59
2021/04/27 03:52:01;;;;;;;14.47;8.13;;;0.50;99.90;;;;;;5110467;28;20044;-59
2021/04/27 03:54:26;;;;;;;12.18;7.75;;;0.50;99.90;;;;;;5110182;28;20063;-59
2021/04/27 03:56:53;;;;;;;13.67;8.13;;;0.50;99.90;;;;;;5110194;28;20086;-60
2021/04/27 03:59:19;;;;;;;14.52;8.65;;;0.50;99.90;;;;;;5110043;28;20047;-58
2021/04/27 04:01:44;;;;;;;10.13;7.87;;;0.40;99.90;;;;;;5109624;28;20047;-59
2021/04/27 04:04:10;;;;;;;14.13;8.60;;;0.40;99.90;;;;;;5109544;28;20067;-58
2021/04/27 04:06:36;;;;;;;13.50;8.43;;;0.40;99.90;;;;;;5110048;28;20380;-59
2021/04/27 04:09:05;;;;;;;13.17;9.03;;;0.40;99.90;;;;;;5110189;28;20065;-59
2021/04/27 04:11:34;;;;;;;17.90;8.63;;;0.40;99.90;;;;;;5109214;28;20105;-59
2021/04/27 04:14:00;;;;;;;12.85;8.75;;;0.40;99.90;;;;;;5110150;28;20078;-59
2021/04/27 04:16:26;;;;;;;13.63;8.18;;;0.40;99.90;;;;;;5109925;28;20066;-59
2021/04/27 04:18:52;;;;;;;15.63;8.75;;;0.40;99.90;;;;;;5109950;28;20048;-59
2021/04/27 04:21:19;;;;;;;17.35;9.15;;;0.40;99.90;;;;;;5109431;28;20044;-59
2021/04/27 04:23:46;;;;;;;14.95;8.60;;;0.40;99.90;;;;;;5091591;28;20059;-59
2021/04/27 04:26:13;;;;;;;13.38;8.40;;;0.40;99.90;;;;;;5109854;28;20048;-60
2021/04/27 04:28:39;;;;;;;13.88;8.68;;;0.40;99.90;;;;;;5109816;28;20070;-60
2021/04/27 04:31:04;;;;;;;11.97;8.50;;;0.40;99.90;;;;;;5109296;28;20414;-60
2021/04/27 04:33:30;;;;;;;12.07;8.33;;;0.40;99.90;;;;;;5109506;28;20316;-60
2021/04/27 04:35:56;;;;;;;13.67;8.57;;;0.40;99.90;;;;;;5109271;28;20043;-60
2021/04/27 04:38:23;;;;;;;12.67;8.63;;;0.40;99.90;;;;;;5108873;28;20062;-56
2021/04/27 04:40:49;;;;;;;12.02;8.27;;;0.40;99.90;;;;;;5109150;28;20043;-60
2021/04/27 04:43:16;;;;;;;11.80;8.55;;;0.50;99.90;;;;;;5109512;28;20039;-59
2021/04/27 04:45:43;;;;;;;19.55;9.85;;;0.50;99.90;;;;;;5091344;28;20537;-60
2021/04/27 04:48:09;;;;;;;14.63;9.15;;;0.50;99.90;;;;;;5109429;28;20043;-60
2021/04/27 04:50:35;;;;;;;14.83;9.40;;;0.50;99.90;;;;;;5109571;28;20040;-60
2021/04/27 04:53:02;;;;;;;15.10;8.98;;;0.60;99.90;;;;;;5091324;28;20102;-60
2021/04/27 04:55:27;;;;;;;13.90;8.20;;;0.80;99.90;;;;;;5108628;28;20059;-60
2021/04/27 04:57:53;;;;;;;11.03;8.57;;;1.00;99.90;;;;;;5109459;28;20046;-60
2021/04/27 05:00:21;;;;;;;10.73;7.90;;;1.10;99.90;;;;;;5109386;28;20067;-60
2021/04/27 05:02:47;;;;;;;10.80;7.70;;;1.30;99.90;;;;;;5109430;28;20044;-65
2021/04/27 05:05:13;;;;;;;13.93;8.13;;;1.30;99.90;;;;;;5110737;28;20490;-60
2021/04/27 05:07:44;;;;;;;11.05;7.85;;;1.40;99.90;;;;;;5111067;28;20070;-65
2021/04/27 05:10:11;;;;;;;12.35;8.18;;;1.60;99.90;;;;;;5109678;28;20052;-58
2021/04/27 05:12:38;;;;;;;11.63;7.53;;;1.80;99.90;;;;;;5109627;28;20146;-58
2021/04/27 05:15:04;;;;;;;9.55;7.05;;;2.10;99.90;;;;;;5109584;28;20051;-58
2021/04/27 05:17:30;;;;;;;11.55;6.85;;;2.40;99.90;;;;;;5090615;28;20138;-59
2021/04/27 05:19:59;;;;;;;9.90;6.68;;;2.60;99.90;;;;;;5109558;28;20447;-58
2021/04/27 05:22:24;;;;;;;11.07;5.90;;;2.80;99.90;;;;;;5110227;28;20473;-59
2021/04/27 05:24:51;;;;;;;8.70;6.63;;;3.00;99.90;;;;;;5113458;28;20044;-60
2021/04/27 05:27:17;;;;;;;9.20;6.53;;;3.20;99.90;;;;;;5113848;28;20400;-59
2021/04/27 05:29:43;;;;;;;7.70;6.10;;;3.40;99.90;;;;;;5113549;28;20122;-60
2021/04/27 05:32:08;;;;;;;9.30;6.27;;;3.50;99.90;;;;;;5112892;28;20070;-59
2021/04/27 05:34:34;;;;;;;10.27;6.17;;;3.70;99.90;;;;;;5113248;28;20048;-60
2021/04/27 05:37:01;;;;;;;7.90;6.18;;;3.70;99.90;;;;;;5113133;28;20047;-59
2021/04/27 05:39:27;;;;;;;8.50;5.80;;;3.90;99.90;;;;;;5112998;28;20063;-59
2021/04/27 05:41:53;;;;;;;7.25;5.50;;;4.00;99.90;;;;;;5113116;28;20127;-59
2021/04/27 05:44:19;;;;;;;5.80;5.20;;;4.10;99.90;;;;;;5113005;28;20388;-59
2021/04/27 05:46:45;;;;;;;9.80;5.30;;;4.20;99.90;;;;;;5112991;28;20118;-59
2021/04/27 05:49:11;;;;;;;7.33;5.10;;;4.30;99.90;;;;;;5113037;28;20051;-59
2021/04/27 05:51:37;;;;;;;5.90;5.30;;;4.50;99.90;;;;;;5113245;28;20048;-59
2021/04/27 05:54:03;;;;;;;8.13;5.10;;;4.50;99.90;;;;;;5112999;28;20510;-60
2021/04/27 05:56:29;;;;;;;8.02;5.13;;;4.60;99.90;;;;;;5112382;28;20775;-60
2021/04/27 05:58:55;;;;;;;4.80;4.30;;;4.80;99.90;;;;;;5112331;28;20116;-59
2021/04/27 06:01:21;;;;;;;10.17;4.60;;;4.90;99.90;;;;;;5112553;28;20047;-60
2021/04/27 06:03:47;;;;;;;6.93;4.70;;;5.00;99.90;;;;;;5112508;28;20130;-60
2021/04/27 06:06:13;;;;;;;5.10;4.38;;;5.00;99.90;;;;;;5112184;28;20318;-59
2021/04/27 06:08:39;;;;;;;7.33;4.53;;;5.20;99.90;;;;;;5094003;28;20044;-60
2021/04/27 06:11:06;;;;;;;7.77;4.43;;;5.30;99.90;;;;;;5112107;28;20482;-59
2021/04/27 06:13:33;;;;;;;8.73;4.13;;;5.50;99.90;;;;;;5112103;28;20054;-60
2021/04/27 06:15:59;;;;;;;6.73;3.80;;;5.50;99.90;;;;;;5112226;28;20316;-61
2021/04/27 06:18:25;;;;;;;7.63;3.60;;;5.70;99.90;;;;;;5111913;28;20765;-60
2021/04/27 06:20:51;;;;;;;5.47;3.90;;;5.80;99.30;;;;;;5111934;28;20297;-59
2021/04/27 06:23:17;;;;;;;8.50;3.43;;;5.80;96.00;;;;;;5112265;28;20359;-59
2021/04/27 06:25:43;;;;;;;5.90;3.70;;;5.90;97.40;;;;;;5111799;28;20333;-60
2021/04/27 06:28:14;;;;;;;5.87;3.97;;;5.80;96.20;;;;;;5111916;28;20048;-59
2021/04/27 06:30:41;;;;;;;8.10;4.20;;;5.90;95.40;;;;;;5111956;28;20080;-60
2021/04/27 06:33:06;;;;;;;4.65;3.83;;;5.90;94.60;;;;;;5112203;28;20298;-61
2021/04/27 06:35:32;;;;;;;6.50;4.03;;;5.90;93.90;;;;;;5110552;28;20066;-60
2021/04/27 06:37:58;;;;;;;6.33;3.87;;;6.00;93.10;;;;;;5109983;28;20050;-59
2021/04/27 06:40:24;;;;;;;9.03;3.90;;;6.10;92.10;;;;;;5111609;28;20046;-60
2021/04/27 06:42:50;;;;;;;6.35;3.53;;;6.00;90.10;;;;;;5111815;28;20059;-59
2021/04/27 06:45:17;;;;;;;7.10;3.50;;;6.10;90.80;;;;;;5111303;28;20039;-60
2021/04/27 06:47:46;;;;;;;5.10;3.30;;;6.20;88.10;;;;;;5111181;28;20293;-59
2021/04/27 06:50:13;;;;;;;5.05;3.10;;;6.20;81.00;;;;;;5111141;28;20491;-58
2021/04/27 06:52:38;;;;;;;3.88;3.10;;;6.30;82.50;;;;;;5111370;28;20047;-59
2021/04/27 06:55:06;;;;;;;5.90;3.53;;;6.30;81.40;;;;;;5111126;28;20062;-60
2021/04/27 06:57:32;;;;;;;5.47;3.40;;;6.50;81.20;;;;;;5111379;28;20043;-61
2021/04/27 06:59:57;;;;;;;7.33;3.10;;;6.60;80.60;;;;;;5111021;28;20109;-59
2021/04/27 07:02:23;;;;;;;6.37;3.47;;;6.60;77.60;;;;;;5110822;28;20055;-60
2021/04/27 07:04:49;;;;;;;7.17;2.80;;;6.70;74.70;;;;;;5111427;28;20042;-59
2021/04/27 07:07:15;;;;;;;4.37;2.90;;;6.80;73.90;;;;;;5111730;28;20108;-60
2021/04/27 07:09:40;;;;;;;7.83;2.80;;;6.90;71.10;;;;;;5111175;28;20087;-58
2021/04/27 07:12:07;;;;;;;8.50;3.43;;;7.00;66.90;;;;;;5110996;28;20047;-59
2021/04/27 07:14:33;;;;;;;7.70;3.25;;;7.10;69.10;;;;;;5110981;28;20068;-59
2021/04/27 07:16:59;;;;;;;8.52;3.15;;;7.20;64.90;;;;;;5111297;28;20406;-59
2021/04/27 07:19:25;;;;;;;6.53;3.17;;;7.30;64.10;;;;;;5110653;28;20051;-59
2021/04/27 07:21:51;;;;;;;4.05;2.38;;;7.40;64.00;;;;;;5111034;28;20540;-59
2021/04/27 07:24:17;;;;;;;9.30;3.00;;;7.50;58.90;;;;;;5092446;28;20043;-59
2021/04/27 07:26:45;;;;;;;6.13;3.10;;;7.50;56.40;;;;;;5110862;28;20066;-59
2021/04/27 07:29:11;;;;;;;10.27;3.83;;;7.70;57.50;;;;;;5111055;28;20047;-60
2021/04/27 07:31:37;;;;;;;4.50;3.00;;;7.90;56.60;;;;;;5112478;28;20066;-59
2021/04/27 07:34:05;;;;;;;6.95;2.97;;;8.00;56.20;;;;;;5110277;28;20035;-60
2021/04/27 07:36:32;;;;;;;5.10;2.67;;;8.00;56.00;;;;;;5110661;28;20768;-59
2021/04/27 07:38:58;;;;;;;4.57;3.00;;;8.10;53.50;;;;;;5110750;28;20530;-62
2021/04/27 07:41:24;;;;;;;8.30;2.60;;;8.20;54.20;;;;;;5093528;28;20067;-61
2021/04/27 07:43:49;;;;;;;5.67;2.80;;;8.50;54.00;;;;;;5110601;28;20142;-60
2021/04/27 07:46:15;;;;;;;11.50;3.13;;;8.60;53.90;;;;;;5109895;28;20047;-61
2021/04/27 07:48:42;;;;;;;4.13;2.80;;;8.70;53.00;;;;;;5110715;28;20056;-60
2021/04/27 07:51:08;;;;;;;6.80;3.03;;;8.80;51.80;;;;;;5110755;28;20040;-59
2021/04/27 07:53:34;;;;;;;5.00;2.47;;;8.80;51.30;;;;;;5110598;28;20116;-58
2021/04/27 07:56:00;;;;;;;7.43;2.60;;;9.00;49.00;;;;;;5110585;28;20048;-58
2021/04/27 07:58:25;;;;;;;5.23;2.60;;;9.00;48.70;;;;;;5110092;28;20059;-60
2021/04/27 08:00:51;;;;;;;7.20;2.90;;;9.10;49.90;;;;;;5110590;28;20111;-59
2021/04/27 08:03:17;;;;;;;5.97;2.77;;;9.10;50.00;;;;;;5110610;28;20094;-59
2021/04/27 08:05:43;;;;;;;3.60;2.53;;;9.20;50.60;;;;;;5110670;28;20044;-60
2021/04/27 08:08:08;;;;;;;5.67;2.67;;;9.20;49.40;;;;;;5110330;28;20050;-59
2021/04/27 08:10:34;;;;;;;4.63;2.70;;;9.20;48.40;;;;;;5090837;28;20184;-59
2021/04/27 08:13:00;;;;;;;4.43;2.33;;;9.60;49.20;;;;;;5108453;28;20051;-59
2021/04/27 08:15:29;;;;;;;8.87;3.10;;;9.30;49.60;;;;;;5110623;28;20043;-60
2021/04/27 08:17:57;;;;;;;5.23;2.60;;;9.40;49.10;;;;;;5110820;28;20062;-58
2021/04/27 08:20:23;;;;;;;4.10;2.60;;;9.60;48.10;;;;;;5111247;28;20305;-60
2021/04/27 08:22:49;;;;;;;5.07;2.97;;;9.70;47.60;;;;;;5110251;28;20351;-60
2021/04/27 08:25:17;;;;;;;5.10;2.37;;;9.80;47.50;;;;;;5110225;28;20479;-61
2021/04/27 08:27:44;;;;;;;6.13;2.73;;;9.90;46.20;;;;;;5110342;28;20047;-59
2021/04/27 08:30:11;;;;;;;7.90;2.80;;;9.90;46.10;;;;;;5110577;28;20793;-60
2021/04/27 08:32:37;;;;;;;4.53;2.50;;;9.90;45.70;;;;;;5110643;28;20300;-59
2021/04/27 08:35:04;;;;;;;8.53;2.80;;;10.00;43.80;;;;;;5109971;28;20293;-59
2021/04/27 08:37:31;;;;;;;9.03;2.80;;;10.00;44.10;;;;;;5091661;28;20303;-60
2021/04/27 08:39:57;;;;;;;4.47;2.93;;;10.10;43.70;;;;;;5110060;28;20316;-58
2021/04/27 08:42:25;;;;;;;5.37;2.77;;;10.20;43.10;;;;;;5109853;28;20294;-59
2021/04/27 08:44:51;;;;;;;4.63;2.80;;;10.20;42.60;;;;;;5109806;28;20438;-58
2021/04/27 08:47:18;;;;;;;5.20;2.50;;;10.20;43.20;;;;;;5109544;28;20342;-59
2021/04/27 08:49:45;;;;;;;7.40;2.90;;;10.20;44.40;;;;;;5091526;28;20372;-59
2021/04/27 08:52:11;;;;;;;6.27;2.73;;;10.20;44.30;;;;;;5110111;28;20300;-59
2021/04/27 08:54:36;;;;;;;5.13;2.73;;;10.40;43.30;;;;;;5109736;28;20293;-58
2021/04/27 08:57:04;;;;;;;4.03;2.80;;;10.40;43.40;;;;;;5110054;28;20467;-59
2021/04/27 08:59:30;;;;;;;4.30;2.67;;;10.60;42.20;;;;;;5095403;28;20463;-59
2021/04/27 09:01:55;;;;;;;8.73;3.23;;;10.60;41.20;;;;;;5114834;28;20384;-59
2021/04/27 09:04:46;;;;;;;4.03;2.40;;;10.60;41.40;;;;;;5115475;28;20162;-58
2021/04/27 09:07:19;;;;;;;5.30;2.80;;;10.80;40.50;;;;;;5114049;28;20092;-59
2021/04/27 09:09:49;;;;;;;5.13;2.58;;;10.60;41.00;;;;;;5113273;28;20292;-57
2021/04/27 09:12:23;;;;;;;3.67;2.40;;;10.60;39.90;;;;;;5114152;28;20075;-57
2021/04/27 09:14:50;;;;;;;7.25;2.55;;;10.70;38.80;;;;;;5113507;28;20297;-57
2021/04/27 09:17:15;;;;;;;5.03;2.40;;;10.80;37.60;;;;;;5113776;28;20068;-57
2021/04/27 09:19:49;;;;;;;5.10;2.13;;;10.90;38.80;;;;;;5113925;28;20378;-57
2021/04/27 09:22:17;;;;;;;6.78;2.75;;;10.90;38.10;;;;;;5113474;28;20219;-57
2021/04/27 09:24:49;;;;;;;9.57;2.43;;;10.90;39.40;;;;;;5113606;28;20044;-58
2021/04/27 09:27:28;;;;;;;7.33;3.00;;;10.90;39.10;;;;;;5113194;28;21097;-57
2021/04/27 09:29:56;;;;;;;4.77;2.67;;;11.00;39.80;;;;;;5113396;28;20289;-58
2021/04/27 09:32:38;;;;;;;4.67;2.40;;;11.00;39.40;;;;;;5113277;28;20317;-57
2021/04/27 09:35:35;;;;;;;7.10;2.90;;;11.10;37.90;;;;;;5094887;28;20290;-57
2021/04/27 09:38:31;;;;;;;3.67;2.50;;;11.10;38.60;;;;;;5113463;28;20294;-55
2021/04/27 09:41:04;;;;;;;4.60;2.67;;;11.10;39.20;;;;;;5094596;28;20773;-61
2021/04/27 09:43:39;;;;;;;6.00;3.00;;;11.10;39.80;;;;;;5113506;28;20293;-62
2021/04/27 09:46:17;;;;;;;4.80;2.40;;;11.30;40.10;;;;;;5124297;28;20305;-61
2021/04/27 09:48:51;;;;;;;5.30;2.57;;;11.30;39.20;;;;;;5095119;28;20323;-64
2021/04/27 09:51:21;;;;;;;7.87;2.60;;;11.20;38.40;;;;;;5092727;28;20718;-63
2021/04/27 09:53:55;;;;;;;6.03;3.00;;;11.30;40.00;;;;;;5111455;28;20376;-63
2021/04/27 09:56:49;;;;;;;4.43;2.97;;;11.20;39.40;;;;;;5111542;28;20369;-59
2021/04/27 09:59:29;;;;;;;4.30;2.70;;;11.10;38.20;;;;;;5093154;28;20297;-60
2021/04/27 10:02:01;;;;;;;5.33;2.40;;;11.10;39.00;;;;;;5092549;28;20316;-60
2021/04/27 10:04:27;;;;;;;6.17;2.57;;;11.20;38.70;;;;;;5111191;28;20293;-59
2021/04/27 10:06:54;;;;;;;4.87;2.77;;;11.00;38.50;;;;;;5093927;28;20305;-59
2021/04/27 10:09:20;;;;;;;5.33;2.70;;;11.20;38.50;;;;;;5111448;28;20297;-60
2021/04/27 10:11:48;;;;;;;5.70;3.00;;;11.20;38.60;;;;;;5112161;28;20772;-61
2021/04/27 10:14:14;;;;;;;4.97;2.30;;;11.30;38.30;;;;;;5112332;28;21180;-60
2021/04/27 10:16:39;;;;;;;3.33;2.53;;;11.20;38.00;;;;;;5112206;28;20397;-60
2021/04/27 10:19:07;;;;;;;5.70;2.33;;;11.10;38.20;;;;;;5112563;28;20081;-61
2021/04/27 10:21:34;;;;;;;7.03;2.53;;;11.20;38.30;;;;;;5111692;28;20043;-61
2021/04/27 10:24:03;;;;;;;2.87;2.57;;;11.30;39.90;;;;;;5111764;28;20299;-61
2021/04/27 10:26:32;;;;;;;7.43;2.67;;;11.40;38.50;;;;;;5111735;28;21037;-61
2021/04/27 10:28:59;;;;;;;4.13;2.63;;;11.30;37.90;;;;;;5111583;28;20671;-61
2021/04/27 10:31:26;;;;;;;3.10;2.77;;;11.30;38.50;;;;;;5093783;28;20289;-61
2021/04/27 10:34:08;;;;;;;8.53;2.90;;;11.50;38.50;;;;;;5112079;28;20780;-59
2021/04/27 10:36:57;;;;;;;3.80;2.30;;;11.60;37.90;;;;;;5111902;28;20361;-60
2021/04/27 10:39:42;;;;;;;6.40;2.60;;;11.50;37.60;;;;;;5111042;28;20335;-60
2021/04/27 10:42:34;;;;;;;3.47;2.50;;;11.40;37.00;;;;;;5111829;28;20776;-60
2021/04/27 10:45:05;;;;;;;8.70;2.40;;;11.60;37.60;;;;;;5106494;28;20392;-60
2021/04/27 10:47:45;;;;;;;9.83;2.63;;;11.60;37.70;;;;;;5111573;28;20389;-61
2021/04/27 10:50:29;;;;;;;4.57;2.37;;;11.70;36.10;;;;;;5110993;28;20289;-60
2021/04/27 10:53:31;;;;;;;4.45;2.33;;;11.80;37.10;;;;;;5111401;28;20297;-61
2021/04/27 10:55:58;;;;;;;3.00;2.60;;;11.60;36.30;;;;;;5110501;28;20071;-61
2021/04/27 10:58:44;;;;;;;2.40;2.20;;;11.70;37.60;;;;;;5111399;28;20305;-61
2021/04/27 11:01:27;;;;;;;4.57;2.30;;;11.70;35.80;;;;;;5110897;28;20297;-62
2021/04/27 11:03:56;;;;;;;4.97;2.47;;;11.80;36.40;;;;;;5110844;28;20297;-59
2021/04/27 11:06:22;;;;;;;8.10;2.83;;;11.60;37.50;;;;;;5111561;28;20050;-59
2021/04/27 11:08:57;;;;;;;5.07;2.40;;;11.70;37.60;;;;;;5111017;28;20634;-59
2021/04/27 11:11:27;;;;;;;4.73;2.50;;;11.80;37.80;;;;;;5111666;28;20304;-60
2021/04/27 11:14:14;;;;;;;2.87;2.40;;;11.60;36.90;;;;;;5112830;28;20321;-59
2021/04/27 11:16:42;;;;;;;4.77;2.50;;;11.70;37.60;;;;;;5075450;28;20784;-61
2021/04/27 11:19:31;;;;;;;4.13;2.37;;;11.60;36.30;;;;;;5111540;28;20320;-60
2021/04/27 11:22:20;;;;;;;7.70;2.50;;;11.90;35.80;;;;;;5097667;28;20321;-59
2021/04/27 11:24:47;;;;;;;3.70;2.23;;;11.90;36.40;;;;;;5111110;28;20297;-58
2021/04/27 11:27:23;;;;;;;3.20;2.13;;;12.00;36.80;;;;;;5110825;28;20298;-58
2021/04/27 11:29:57;;;;;;;3.50;2.20;;;11.90;35.70;;;;;;5111775;28;21002;-61
2021/04/27 11:32:25;;;;;;;4.17;2.20;;;11.80;35.50;;;;;;5110371;28;20333;-61
2021/04/27 11:34:50;;;;;;;4.90;2.30;;;11.60;36.20;;;;;;5110185;28;20621;-60
2021/04/27 11:37:28;;;;;;;3.00;2.30;;;11.60;36.70;;;;;;5103960;28;20294;-60
2021/04/27 11:39:56;;;;;;;3.60;2.47;;;11.70;36.90;;;;;;5090294;28;20119;-59
2021/04/27 11:42:31;;;;;;;3.23;2.10;;;11.70;35.30;;;;;;5090557;28;20354;-59
2021/04/27 11:45:03;;;;;;;3.07;2.00;;;11.80;34.80;;;;;;5090587;28;20317;-58
2021/04/27 11:47:35;;;;;;;3.10;2.27;;;11.70;34.70;;;;;;5089866;28;20343;-57
2021/04/27 11:50:04;;;;;;;4.27;2.20;;;11.70;34.70;;;;;;5088763;28;20684;-58
2021/04/27 11:53:01;;;;;;;3.80;1.90;;;11.70;34.80;;;;;;5089229;28;20792;-57
2021/04/27 11:55:41;;;;;;;3.97;2.50;;;11.80;34.60;;;;;;5089160;28;20329;-57
2021/04/27 11:58:20;;;;;;;3.00;2.80;;;11.80;34.30;;;;;;5090152;28;20619;-61
2021/04/27 12:00:49;;;;;;;8.90;2.50;;;11.80;34.40;;;;;;5089984;28;20351;-57
2021/04/27 12:03:32;;;;;;;5.67;2.90;;;12.00;35.00;;;;;;5089370;28;20726;-62
2021/04/27 12:06:06;;;;;;;2.60;2.40;;;11.90;34.50;;;;;;5090366;28;20355;-60
2021/04/27 12:08:44;;;;;;;4.60;2.70;;;11.90;36.10;;;;;;5090072;28;20302;-60
2021/04/27 12:11:10;;;;;;;6.87;2.80;;;11.90;35.30;;;;;;5090215;28;20158;-61
2021/04/27 12:13:37;;;;;;;3.00;2.70;;;12.20;34.70;;;;;;5090329;28;20321;-59
2021/04/27 12:16:13;;;;;;;4.83;2.97;;;12.10;35.00;;;;;;5090150;28;20302;-61
2021/04/27 12:18:48;;;;;;;5.13;2.83;;;12.10;34.80;;;;;;5089254;28;20348;-58
2021/04/27 12:21:25;;;;;;;4.53;3.03;;;12.20;33.20;;;;;;5089032;28;20320;-59
2021/04/27 12:24:10;;;;;;;9.63;2.90;;;12.10;34.00;;;;;;5087907;28;20301;-59
2021/04/27 12:26:38;;;;;;;6.43;3.27;;;12.10;34.00;;;;;;5088682;28;20290;-60
2021/04/27 12:29:06;;;;;;;4.23;3.10;;;12.10;35.60;;;;;;5089363;28;20293;-59
2021/04/27 12:31:33;;;;;;;13.67;3.77;;;12.20;35.80;;;;;;5088929;28;20321;-60
2021/04/27 12:34:02;;;;;;;5.53;3.03;;;12.30;34.60;;;;;;5089251;28;20290;-59
2021/04/27 12:36:46;;;;;;;3.60;2.80;;;12.10;34.00;;;;;;5089060;28;20298;-60
2021/04/27 12:39:24;;;;;;;4.03;2.87;;;12.10;33.40;;;;;;5089647;28;20325;-60
2021/04/27 12:41:57;;;;;;;7.73;3.10;;;12.00;33.50;;;;;;5089307;28;20721;-60
2021/04/27 12:44:31;;;;;;;7.57;3.73;;;12.20;35.30;;;;;;5089379;28;20294;-60
2021/04/27 12:46:59;;;;;;;5.80;2.87;;;12.20;34.40;;;;;;5089514;28;20309;-59
2021/04/27 12:49:33;;;;;;;5.30;3.10;;;12.30;34.60;;;;;;5089380;28;20325;-60
2021/04/27 12:52:07;;;;;;;3.88;2.83;;;12.20;33.30;;;;;;5089339;28;20297;-59
2021/04/27 12:54:34;;;;;;;8.10;3.22;;;12.20;33.00;;;;;;5089286;28;20043;-59
2021/04/27 12:57:13;;;;;;;5.83;2.80;;;12.10;33.80;;;;;;5089519;28;20044;-60
2021/04/27 12:59:40;;;;;;;9.10;3.17;;;12.20;33.10;;;;;;5088538;28;20314;-59